createdAt,value
2023-08-22T00:00:29.283Z,632.99
2023-08-22T00:01:28.992Z,633.06
2023-08-22T00:02:28.949Z,633.17
2023-08-22T00:03:29.033Z,633.36
2023-08-22T00:04:28.937Z,633.55
2023-08-22T00:05:29.250Z,633.83
2023-08-22T00:06:28.893Z,633.88
2023-08-22T00:07:28.898Z,633.98
2023-08-22T00:08:28.906Z,634.16
2023-08-22T00:09:28.902Z,634.81
2023-08-22T00:10:28.894Z,635.24
2023-08-22T00:11:29.125Z,635.41
2023-08-22T00:12:29.829Z,635.85
2023-08-22T00:13:28.854Z,636.21
2023-08-22T00:14:29.092Z,636.53
2023-08-22T00:15:29.121Z,637.10
2023-08-22T00:16:29.803Z,637.42
2023-08-22T00:17:29.075Z,637.97
2023-08-22T00:18:28.898Z,638.69
2023-08-22T00:19:30.879Z,639.28
2023-08-22T00:20:30.032Z,639.51
2023-08-22T00:21:31.557Z,639.73
2023-08-22T00:22:28.744Z,639.61
2023-08-22T00:23:28.752Z,639.79
2023-08-22T00:24:29.007Z,639.31
2023-08-22T00:25:29.012Z,639.35
2023-08-22T00:26:28.694Z,639.18
2023-08-22T00:27:28.674Z,638.67
2023-08-22T00:28:28.940Z,638.50
2023-08-22T00:29:28.649Z,637.93
2023-08-22T00:30:28.640Z,637.19
2023-08-22T00:31:28.737Z,636.56
2023-08-22T00:32:29.007Z,635.64
2023-08-22T00:33:28.608Z,635.00
2023-08-22T00:34:28.590Z,634.05
2023-08-22T00:35:28.573Z,633.36
2023-08-22T00:36:28.573Z,632.81
2023-08-22T00:37:28.657Z,632.54
2023-08-22T00:38:28.570Z,632.35
2023-08-22T00:39:28.837Z,632.58
2023-08-22T00:40:28.536Z,632.87
2023-08-22T00:41:28.552Z,633.05
2023-08-22T00:42:29.463Z,633.34
2023-08-22T00:43:28.497Z,633.56
2023-08-22T00:44:28.771Z,633.59
2023-08-22T00:45:28.471Z,633.90
2023-08-22T00:46:28.800Z,634.02
2023-08-22T00:47:29.417Z,634.07
2023-08-22T00:48:28.438Z,633.96
2023-08-22T00:53:48.962Z,634.89
2023-08-22T00:54:48.603Z,633.46
2023-08-22T00:55:48.863Z,633.00
2023-08-22T00:56:48.570Z,632.96
2023-08-22T00:57:48.563Z,633.03
2023-08-22T00:58:48.570Z,632.93
2023-08-22T00:59:49.493Z,632.90
2023-08-22T01:00:48.621Z,632.44
2023-08-22T01:01:48.529Z,632.26
2023-08-22T01:02:48.902Z,632.05
2023-08-22T01:03:48.849Z,631.76
2023-08-22T01:04:48.491Z,631.73
2023-08-22T01:05:48.506Z,632.23
2023-08-22T01:06:48.452Z,632.64
2023-08-22T01:07:48.451Z,633.20
2023-08-22T01:08:48.443Z,633.82
2023-08-22T01:09:49.740Z,634.42
2023-08-22T01:10:49.711Z,634.88
2023-08-22T01:11:49.478Z,635.15
2023-08-22T01:12:51.003Z,635.08
2023-08-22T01:13:48.448Z,635.28
2023-08-22T01:14:50.751Z,635.44
2023-08-22T01:15:51.865Z,635.93
2023-08-22T01:16:50.542Z,636.18
2023-08-22T01:17:50.722Z,636.60
2023-08-22T01:18:50.281Z,636.83
2023-08-22T01:19:50.730Z,636.74
2023-08-22T01:20:49.279Z,636.62
2023-08-22T01:21:49.317Z,636.55
2023-08-22T01:22:50.558Z,636.46
2023-08-22T01:23:50.063Z,636.05
2023-08-22T01:24:50.830Z,635.90
2023-08-22T01:25:49.910Z,635.63
2023-08-22T01:26:50.531Z,635.55
2023-08-22T01:27:49.393Z,635.37
2023-08-22T01:28:49.742Z,635.07
2023-08-22T01:29:48.201Z,634.81
2023-08-22T01:30:50.434Z,634.58
2023-08-22T01:31:51.062Z,634.54
2023-08-22T01:32:49.194Z,634.47
2023-08-22T01:33:48.194Z,635.02
2023-08-22T01:34:51.594Z,635.19
2023-08-22T01:35:49.426Z,635.60
2023-08-22T01:36:50.637Z,636.21
2023-08-22T01:37:49.888Z,636.44
2023-08-22T01:38:49.936Z,636.55
2023-08-22T01:39:51.386Z,636.59
2023-08-22T01:40:49.255Z,636.83
2023-08-22T01:41:48.851Z,637.20
2023-08-22T01:42:50.832Z,637.50
2023-08-22T01:43:49.321Z,637.58
2023-08-22T01:44:49.003Z,637.53
2023-08-22T01:45:48.352Z,637.48
2023-08-22T01:46:49.301Z,637.30
2023-08-22T01:47:49.327Z,637.10
2023-08-22T01:48:48.288Z,637.06
2023-08-22T01:49:48.291Z,637.29
2023-08-22T01:50:48.260Z,637.30
2023-08-22T01:51:48.006Z,637.24
2023-08-22T01:52:49.198Z,637.13
2023-08-22T01:53:47.927Z,637.40
2023-08-22T01:54:47.942Z,637.73
2023-08-22T01:55:49.144Z,637.95
2023-08-22T01:56:47.934Z,638.38
2023-08-22T01:57:47.899Z,638.74
2023-08-22T01:58:48.900Z,639.11
2023-08-22T01:59:48.831Z,639.33
2023-08-22T02:00:48.826Z,639.41
2023-08-22T02:01:48.861Z,639.93
2023-08-22T02:02:47.915Z,640.14
2023-08-22T02:03:48.823Z,640.54
2023-08-22T02:04:49.066Z,640.60
2023-08-22T02:05:49.044Z,640.56
2023-08-22T02:06:47.824Z,641.25
2023-08-22T02:07:48.119Z,641.62
2023-08-22T02:08:49.026Z,642.05
2023-08-22T02:09:48.090Z,642.27
2023-08-22T02:10:48.996Z,642.37
2023-08-22T02:11:47.737Z,642.14
2023-08-22T02:12:47.785Z,642.48
2023-08-22T02:13:47.999Z,642.72
2023-08-22T02:14:47.715Z,642.81
2023-08-22T02:15:48.725Z,643.02
2023-08-22T02:16:47.694Z,643.46
2023-08-22T02:17:47.697Z,644.10
2023-08-22T02:18:47.695Z,644.55
2023-08-22T02:19:47.659Z,645.27
2023-08-22T02:20:47.675Z,645.61
2023-08-22T02:21:47.902Z,646.00
2023-08-22T02:22:48.611Z,646.13
2023-08-22T02:23:47.891Z,646.43
2023-08-22T02:24:47.642Z,646.30
2023-08-22T02:25:47.687Z,646.41
2023-08-22T02:26:50.382Z,646.95
2023-08-22T02:27:47.576Z,647.23
2023-08-22T02:28:47.627Z,647.38
2023-08-22T02:29:47.518Z,647.84
2023-08-22T02:30:47.549Z,648.20
2023-08-22T02:31:47.556Z,648.83
2023-08-22T02:32:48.829Z,649.40
2023-08-22T02:33:47.862Z,649.90
2023-08-22T02:34:47.483Z,650.36
2023-08-22T02:35:47.466Z,650.27
2023-08-22T02:36:47.739Z,650.58
2023-08-22T02:37:47.460Z,650.58
2023-08-22T02:38:47.443Z,651.20
2023-08-22T02:39:48.394Z,651.63
2023-08-22T02:40:48.638Z,651.95
2023-08-22T02:41:47.381Z,651.97
2023-08-22T02:42:47.421Z,651.99
2023-08-22T02:43:47.387Z,652.38
2023-08-22T02:44:47.362Z,652.79
2023-08-22T02:45:47.436Z,653.16
2023-08-22T02:46:48.279Z,653.81
2023-08-22T02:47:47.372Z,653.77
2023-08-22T02:48:47.327Z,654.43
2023-08-22T02:49:47.327Z,654.94
2023-08-22T02:50:49.097Z,655.14
2023-08-22T02:51:47.558Z,654.96
2023-08-22T02:52:48.225Z,654.89
2023-08-22T02:53:48.506Z,654.92
2023-08-22T02:54:48.210Z,654.98
2023-08-22T02:55:47.323Z,655.31
2023-08-22T02:56:47.219Z,655.69
2023-08-22T02:57:47.552Z,655.71
2023-08-22T02:58:48.160Z,655.56
2023-08-22T02:59:47.185Z,655.45
2023-08-22T03:00:47.232Z,655.40
2023-08-22T03:01:47.176Z,655.66
2023-08-22T03:02:48.465Z,655.71
2023-08-22T03:03:48.120Z,655.82
2023-08-22T03:04:47.138Z,656.05
2023-08-22T03:05:48.104Z,656.30
2023-08-22T03:06:48.121Z,656.41
2023-08-22T03:07:48.045Z,656.45
2023-08-22T03:08:47.120Z,656.34
2023-08-22T03:09:47.103Z,656.43
2023-08-22T03:10:47.360Z,656.72
2023-08-22T03:11:47.072Z,656.76
2023-08-22T03:12:47.054Z,657.11
2023-08-22T03:13:47.322Z,657.25
2023-08-22T03:14:47.030Z,657.09
2023-08-22T03:15:47.314Z,657.17
2023-08-22T03:16:48.326Z,657.30
2023-08-22T03:17:47.282Z,657.20
2023-08-22T03:18:46.988Z,657.32
2023-08-22T03:19:47.961Z,657.15
2023-08-22T03:20:47.001Z,657.18
2023-08-22T03:21:46.934Z,657.21
2023-08-22T03:22:46.942Z,656.79
2023-08-22T03:23:47.194Z,656.68
2023-08-22T03:24:46.945Z,656.81
2023-08-22T03:25:46.906Z,656.96
2023-08-22T03:26:46.900Z,656.90
2023-08-22T03:27:46.886Z,657.23
2023-08-22T03:28:46.876Z,657.18
2023-08-22T03:29:47.815Z,657.48
2023-08-22T03:30:46.865Z,657.89
2023-08-22T03:31:48.054Z,658.14
2023-08-22T03:32:46.829Z,658.56
2023-08-22T03:33:46.793Z,658.69
2023-08-22T03:34:47.786Z,659.03
2023-08-22T03:35:47.081Z,659.33
2023-08-22T03:36:46.781Z,659.66
2023-08-22T03:37:46.795Z,659.98
2023-08-22T03:38:47.047Z,660.55
2023-08-22T03:39:47.038Z,661.43
2023-08-22T03:40:46.737Z,662.49
2023-08-22T03:41:46.741Z,663.07
2023-08-22T03:42:47.983Z,662.96
2023-08-22T03:43:46.693Z,662.75
2023-08-22T03:44:47.927Z,662.57
2023-08-22T03:45:46.664Z,662.87
2023-08-22T03:46:47.680Z,663.05
2023-08-22T03:47:47.693Z,663.27
2023-08-22T03:48:46.639Z,663.47
2023-08-22T03:49:46.709Z,663.88
2023-08-22T03:50:47.572Z,663.87
2023-08-22T03:51:48.365Z,664.38
2023-08-22T03:52:47.532Z,664.69
2023-08-22T03:53:46.611Z,665.24
2023-08-22T03:54:46.856Z,665.81
2023-08-22T03:55:46.572Z,666.18
2023-08-22T03:56:46.588Z,666.27
2023-08-22T03:57:46.538Z,666.19
2023-08-22T03:58:47.218Z,666.03
2023-08-22T03:59:46.498Z,666.35
2023-08-22T04:00:46.536Z,666.62
2023-08-22T04:01:46.536Z,666.75
2023-08-22T04:02:47.490Z,666.98
2023-08-22T04:03:46.442Z,667.13
2023-08-22T04:04:46.480Z,667.15
2023-08-22T04:05:46.492Z,667.29
2023-08-22T04:06:48.257Z,667.09
2023-08-22T04:07:47.412Z,667.18
2023-08-22T04:08:46.429Z,667.57
2023-08-22T04:09:47.618Z,667.77
2023-08-22T04:10:47.360Z,667.79
2023-08-22T04:11:46.812Z,667.88
2023-08-22T04:12:46.396Z,668.04
2023-08-22T04:13:46.330Z,667.99
2023-08-22T04:14:46.304Z,667.72
2023-08-22T04:15:46.336Z,667.38
2023-08-22T04:16:47.622Z,667.34
2023-08-22T04:17:49.863Z,667.48
2023-08-22T04:18:46.293Z,667.50
2023-08-22T04:19:46.571Z,667.50
2023-08-22T04:20:46.558Z,667.94
2023-08-22T04:21:46.274Z,668.46
2023-08-22T04:22:46.230Z,668.78
2023-08-22T04:23:46.500Z,669.53
2023-08-22T04:24:46.509Z,669.70
2023-08-22T04:25:46.257Z,670.17
2023-08-22T04:26:47.181Z,670.07
2023-08-22T04:27:48.991Z,670.50
2023-08-22T04:28:47.163Z,670.34
2023-08-22T04:29:46.127Z,670.22
2023-08-22T04:30:46.216Z,670.34
2023-08-22T04:31:46.438Z,670.64
2023-08-22T04:32:46.440Z,670.80
2023-08-22T04:33:46.115Z,670.60
2023-08-22T04:34:47.038Z,670.81
2023-08-22T04:35:47.064Z,671.20
2023-08-22T04:36:46.120Z,671.15
2023-08-22T04:37:46.056Z,670.66
2023-08-22T04:38:46.075Z,670.47
2023-08-22T04:39:46.044Z,670.05
2023-08-22T04:40:46.051Z,669.68
2023-08-22T04:41:46.277Z,669.73
2023-08-22T04:42:46.344Z,669.72
2023-08-22T04:43:46.277Z,669.27
2023-08-22T04:44:46.052Z,669.63
2023-08-22T04:45:46.207Z,669.71
2023-08-22T04:46:45.981Z,669.23
2023-08-22T04:47:46.922Z,669.00
2023-08-22T04:48:45.923Z,668.83
2023-08-22T04:49:46.207Z,669.10
2023-08-22T04:50:46.245Z,669.41
2023-08-22T04:51:46.825Z,669.78
2023-08-22T04:52:48.703Z,670.42
2023-08-22T04:53:46.167Z,670.56
2023-08-22T04:54:45.879Z,671.15
2023-08-22T04:55:45.845Z,671.24
2023-08-22T04:56:45.887Z,671.40
2023-08-22T04:57:45.818Z,671.52
2023-08-22T04:58:45.826Z,671.82
2023-08-22T04:59:47.015Z,672.40
2023-08-22T05:00:46.742Z,672.56
2023-08-22T05:01:45.804Z,672.47
2023-08-22T05:02:45.787Z,672.58
2023-08-22T05:03:46.049Z,672.53
2023-08-22T05:04:46.004Z,672.16
2023-08-22T05:05:46.702Z,672.09
2023-08-22T05:06:46.443Z,671.90
2023-08-22T05:07:46.975Z,671.70
2023-08-22T05:08:45.682Z,671.60
2023-08-22T05:09:45.713Z,671.68
2023-08-22T05:10:45.688Z,671.92
2023-08-22T05:11:46.751Z,671.92
2023-08-22T05:12:45.739Z,671.81
2023-08-22T05:13:45.912Z,671.85
2023-08-22T05:14:45.614Z,671.69
2023-08-22T05:15:45.604Z,671.12
2023-08-22T05:16:45.695Z,670.49
2023-08-22T05:17:47.212Z,669.44
2023-08-22T05:18:45.563Z,668.55
2023-08-22T05:19:45.559Z,668.45
2023-08-22T05:20:45.845Z,668.67
2023-08-22T05:21:45.582Z,668.89
2023-08-22T05:22:46.476Z,668.52
2023-08-22T05:23:46.962Z,668.38
2023-08-22T05:24:45.528Z,668.42
2023-08-22T05:25:46.449Z,668.28
2023-08-22T05:26:45.611Z,667.61
2023-08-22T05:27:46.697Z,667.69
2023-08-22T05:28:45.741Z,667.04
2023-08-22T05:29:45.467Z,668.23
2023-08-22T05:30:45.746Z,667.56
2023-08-22T05:31:45.536Z,666.50
2023-08-22T05:37:57.635Z,665.28
2023-08-22T05:38:55.445Z,664.91
2023-08-22T05:39:56.251Z,664.25
2023-08-22T05:40:55.421Z,662.99
2023-08-22T05:41:55.693Z,662.91
2023-08-22T05:42:55.386Z,662.90
2023-08-22T05:43:55.382Z,662.50
2023-08-22T05:44:58.152Z,662.99
2023-08-22T05:45:58.235Z,662.64
2023-08-22T05:46:58.121Z,661.98
2023-08-22T05:47:55.374Z,661.10
2023-08-22T05:48:56.591Z,660.95
2023-08-22T05:49:55.361Z,660.91
2023-08-22T05:50:55.375Z,660.80
2023-08-22T05:51:55.276Z,660.31
2023-08-22T05:52:55.592Z,660.00
2023-08-22T05:53:55.256Z,659.89
2023-08-22T05:54:57.040Z,659.98
2023-08-22T05:55:55.558Z,660.06
2023-08-22T05:56:55.247Z,659.33
2023-08-22T05:57:56.174Z,659.32
2023-08-22T05:58:57.933Z,659.76
2023-08-22T05:59:55.296Z,661.08
2023-08-22T06:00:56.679Z,662.59
2023-08-22T06:01:58.474Z,660.93
2023-08-22T06:02:58.932Z,659.33
2023-08-22T06:03:56.479Z,662.75
2023-08-22T06:04:56.888Z,662.79
2023-08-22T06:05:57.898Z,662.50
2023-08-22T06:06:55.425Z,660.25
2023-08-22T06:07:55.118Z,661.84
2023-08-22T06:08:55.124Z,661.22
2023-08-22T06:09:55.919Z,660.20
2023-08-22T06:10:55.190Z,660.95
2023-08-22T06:11:55.336Z,660.74
2023-08-22T06:12:55.020Z,660.53
2023-08-22T06:13:55.020Z,660.34
2023-08-22T06:14:55.384Z,660.38
2023-08-22T06:15:57.916Z,660.09
2023-08-22T06:16:55.333Z,659.90
2023-08-22T06:17:55.027Z,659.84
2023-08-22T06:18:54.953Z,659.32
2023-08-22T06:19:55.008Z,658.82
2023-08-22T06:20:54.988Z,658.18
2023-08-22T06:21:54.926Z,656.71
2023-08-22T06:22:54.931Z,655.29
2023-08-22T06:23:54.897Z,653.10
2023-08-22T06:24:54.907Z,651.32
2023-08-22T06:25:54.902Z,650.11
2023-08-22T06:26:54.896Z,648.92
2023-08-22T06:27:55.581Z,647.09
2023-08-22T06:28:55.064Z,645.34
2023-08-22T06:29:54.924Z,641.64
2023-08-22T06:30:55.178Z,637.60
2023-08-22T06:31:54.835Z,638.38
2023-08-22T06:32:56.641Z,634.92
2023-08-22T06:42:20.570Z,636.48
2023-08-22T06:43:20.114Z,635.99
2023-08-22T06:44:20.184Z,636.53
2023-08-22T06:45:20.162Z,637.70
2023-08-22T06:46:20.143Z,639.92
2023-08-22T06:47:20.091Z,641.32
2023-08-22T06:48:34.505Z,641.68
2023-08-22T06:49:21.421Z,641.16
2023-08-22T06:50:23.385Z,640.89
2023-08-22T06:51:24.137Z,643.50
2023-08-22T06:52:21.906Z,643.30
2023-08-22T06:53:20.321Z,642.32
2023-08-22T06:54:20.101Z,641.68
2023-08-22T06:55:20.349Z,640.52
2023-08-22T06:56:19.973Z,638.67
2023-08-22T06:57:21.272Z,638.17
2023-08-22T06:58:24.977Z,638.42
2023-08-22T06:59:24.284Z,638.09
2023-08-22T07:00:20.232Z,637.28
2023-08-22T07:01:20.300Z,636.73
2023-08-22T07:02:20.317Z,635.96
2023-08-22T07:03:20.349Z,635.30
2023-08-22T07:04:20.070Z,634.95
2023-08-22T07:05:20.847Z,634.33
2023-08-22T07:06:19.872Z,634.48
2023-08-22T07:07:21.681Z,634.19
2023-08-22T07:08:19.859Z,633.38
2023-08-22T07:09:19.909Z,632.81
2023-08-22T07:10:20.241Z,631.94
2023-08-22T07:11:19.872Z,630.39
2023-08-22T07:12:19.817Z,629.67
2023-08-22T07:13:22.992Z,629.59
2023-08-22T07:14:19.860Z,629.70
2023-08-22T07:15:19.800Z,629.13
2023-08-22T07:16:19.791Z,627.92
2023-08-22T07:17:19.768Z,626.49
2023-08-22T07:18:20.126Z,626.04
2023-08-22T07:19:31.249Z,625.24
2023-08-22T07:20:20.734Z,624.99
2023-08-22T07:21:20.036Z,624.69
2023-08-22T07:22:19.704Z,623.58
2023-08-22T07:23:19.741Z,623.15
2023-08-22T07:24:20.014Z,622.80
2023-08-22T07:25:20.043Z,622.54
2023-08-22T07:26:22.577Z,622.18
2023-08-22T07:27:21.571Z,621.56
2023-08-22T07:28:19.709Z,621.75
2023-08-22T07:29:25.356Z,621.61
2023-08-22T07:30:21.408Z,620.72
2023-08-22T07:31:24.987Z,620.13
2023-08-22T07:32:23.286Z,619.69
2023-08-22T07:33:19.651Z,619.68
2023-08-22T07:34:19.564Z,620.23
2023-08-22T07:35:19.864Z,619.82
2023-08-22T07:36:19.982Z,619.03
2023-08-22T07:37:19.530Z,618.28
2023-08-22T07:38:21.778Z,617.37
2023-08-22T07:39:19.530Z,616.24
2023-08-22T07:40:19.508Z,615.29
2023-08-22T07:41:22.287Z,615.06
2023-08-22T07:42:19.756Z,614.74
2023-08-22T07:43:19.458Z,614.75
2023-08-22T07:44:19.433Z,614.57
2023-08-22T07:45:19.471Z,614.34
2023-08-22T07:46:19.517Z,610.63
2023-08-22T07:47:19.412Z,609.05
2023-08-22T07:48:19.395Z,606.89
2023-08-22T07:49:19.396Z,612.92
2023-08-22T07:50:19.373Z,614.81
2023-08-22T07:51:19.381Z,614.48
2023-08-22T07:52:19.643Z,611.63
2023-08-22T07:53:20.502Z,613.02
2023-08-22T07:54:19.332Z,612.79
2023-08-22T07:55:19.363Z,611.21
2023-08-22T07:56:19.312Z,609.68
2023-08-22T07:57:19.815Z,609.96
2023-08-22T07:58:19.308Z,611.00
2023-08-22T07:59:21.223Z,610.96
2023-08-22T08:00:22.493Z,609.97
2023-08-22T08:19:57.664Z,600.05
2023-08-22T08:23:42.900Z,601.80
2023-08-22T08:31:25.551Z,597.35
2023-08-22T08:32:25.243Z,596.11
2023-08-22T08:33:24.848Z,595.53
2023-08-22T08:34:24.754Z,595.72
2023-08-22T08:35:24.419Z,596.30
2023-08-22T08:36:24.738Z,597.34
2023-08-22T08:37:24.410Z,597.89
2023-08-22T08:38:26.209Z,598.12
2023-08-22T08:41:04.529Z,598.98
2023-08-22T08:42:04.844Z,587.29
2023-08-22T08:43:05.268Z,588.32
2023-08-22T08:44:04.455Z,586.88
2023-08-22T08:45:04.436Z,586.05
2023-08-22T08:46:04.459Z,586.25
2023-08-22T08:48:35.805Z,586.82
2023-08-22T08:49:37.945Z,585.09
2023-08-22T08:50:36.871Z,586.45
2023-08-22T08:51:35.778Z,587.32
2023-08-22T08:52:36.793Z,591.83
2023-08-22T08:53:37.519Z,599.10
2023-08-22T08:54:35.710Z,604.54
2023-08-22T08:55:35.757Z,596.45
2023-08-22T08:56:35.723Z,594.30
2023-08-22T08:57:35.698Z,605.98
2023-08-22T08:58:35.644Z,601.00
2023-08-22T08:59:35.658Z,594.52
2023-08-22T09:00:35.637Z,588.46
2023-08-22T09:01:35.713Z,578.50
2023-08-22T09:02:35.692Z,577.43
2023-08-22T09:03:36.819Z,577.97
2023-08-22T09:04:35.596Z,579.56
2023-08-22T09:05:36.601Z,580.98
2023-08-22T09:06:35.586Z,579.79
2023-08-22T09:07:35.562Z,583.08
2023-08-22T09:08:35.547Z,588.23
2023-08-22T09:09:35.542Z,587.52
2023-08-22T09:10:35.581Z,580.46
2023-08-22T09:11:39.584Z,587.96
2023-08-22T09:12:36.538Z,580.94
2023-08-22T09:13:54.075Z,581.62
2023-08-22T09:14:36.608Z,576.37
2023-08-22T09:15:35.470Z,580.21
2023-08-22T09:16:35.515Z,578.41
2023-08-22T09:17:35.453Z,581.31
2023-08-22T09:18:38.245Z,581.36
2023-08-22T09:19:35.463Z,580.73
2023-08-22T09:20:35.423Z,579.87
2023-08-22T09:21:35.415Z,579.30
2023-08-22T09:22:37.195Z,578.96
2023-08-22T09:23:36.438Z,578.28
2023-08-22T09:24:38.540Z,577.55
2023-08-22T09:25:35.660Z,575.03
2023-08-22T09:26:35.330Z,576.27
2023-08-22T09:27:35.366Z,575.46
2023-08-22T09:28:35.345Z,575.59
2023-08-22T09:29:37.053Z,576.02
2023-08-22T09:30:35.306Z,576.08
2023-08-22T09:31:35.333Z,575.67
2023-08-22T09:32:35.305Z,576.88
2023-08-22T09:33:35.300Z,576.95
2023-08-22T09:34:35.305Z,576.83
2023-08-22T09:35:35.646Z,576.32
2023-08-22T09:38:28.902Z,578.30
2023-08-22T09:39:28.453Z,576.78
2023-08-22T09:40:28.754Z,575.71
2023-08-22T09:41:32.739Z,574.58
2023-08-22T09:42:29.399Z,574.47
2023-08-22T09:43:28.443Z,574.57
2023-08-22T09:44:28.394Z,575.24
2023-08-22T09:45:28.486Z,574.83
2023-08-22T09:46:28.421Z,574.66
2023-08-22T09:47:28.417Z,574.29
2023-08-22T09:48:28.319Z,573.65
2023-08-22T09:49:28.339Z,569.51
2023-08-22T09:50:28.404Z,574.58
2023-08-22T09:51:29.167Z,573.24
2023-08-22T09:52:28.295Z,571.39
2023-08-22T09:53:28.335Z,573.35
2023-08-22T09:54:28.308Z,573.91
2023-08-22T09:55:29.256Z,573.14
2023-08-22T09:56:29.120Z,571.87
2023-08-22T09:57:28.233Z,572.18
2023-08-22T09:58:28.266Z,570.58
2023-08-22T09:59:28.257Z,578.43
2023-08-22T10:00:28.221Z,571.39
2023-08-22T10:01:30.322Z,578.50
2023-08-22T10:02:29.291Z,588.26
2023-08-22T10:03:28.364Z,583.03
2023-08-22T10:04:28.227Z,595.65
2023-08-22T10:05:28.139Z,599.48
2023-08-22T10:06:42.581Z,601.82
2023-08-22T10:07:29.173Z,601.90
2023-08-22T10:08:28.188Z,595.45
2023-08-22T10:09:29.818Z,579.93
2023-08-22T10:10:28.845Z,569.27
2023-08-22T10:11:28.167Z,564.23
2023-08-22T10:12:30.260Z,567.58
2023-08-22T10:13:28.389Z,565.26
2023-08-22T10:14:28.055Z,564.89
2023-08-22T10:15:30.882Z,565.51
2023-08-22T10:16:29.046Z,566.49
2023-08-22T10:17:29.208Z,569.18
2023-08-22T10:18:28.001Z,568.19
2023-08-22T10:19:28.066Z,570.10
2023-08-22T10:20:28.029Z,592.84
2023-08-22T10:21:27.958Z,575.05
2023-08-22T10:22:27.956Z,571.93
2023-08-22T10:23:28.697Z,565.04
2023-08-22T10:24:27.941Z,563.86
2023-08-22T10:25:27.916Z,561.59
2023-08-22T10:26:27.978Z,561.22
2023-08-22T10:27:27.961Z,560.16
2023-08-22T10:28:27.999Z,562.18
2023-08-22T10:29:27.890Z,564.42
2023-08-22T10:30:27.856Z,572.59
2023-08-22T10:31:28.847Z,575.04
2023-08-22T10:32:27.877Z,570.93
2023-08-22T10:33:34.304Z,572.52
2023-08-22T10:34:29.778Z,572.11
2023-08-22T10:35:27.930Z,570.82
2023-08-22T10:36:28.821Z,568.90
2023-08-22T10:37:27.779Z,569.96
2023-08-22T10:38:28.021Z,569.17
2023-08-22T10:39:28.068Z,569.56
2023-08-22T10:40:27.782Z,569.11
2023-08-22T10:41:28.075Z,568.52
2023-08-22T10:42:30.525Z,570.86
2023-08-22T10:43:27.720Z,570.07
2023-08-22T10:44:27.898Z,568.62
2023-08-22T10:45:27.699Z,566.77
2023-08-22T10:46:27.737Z,565.26
2023-08-22T10:47:27.820Z,563.24
2023-08-22T10:48:29.387Z,562.64
2023-08-22T10:49:27.672Z,560.75
2023-08-22T10:50:29.543Z,560.57
2023-08-22T10:51:28.295Z,560.96
2023-08-22T10:52:27.654Z,561.28
2023-08-22T10:53:29.437Z,560.77
2023-08-22T10:54:28.658Z,560.91
2023-08-22T10:57:29.098Z,566.64
2023-08-22T10:58:28.654Z,564.68
2023-08-22T10:59:25.792Z,568.03
2023-08-22T11:00:26.557Z,566.19
2023-08-22T11:01:25.768Z,572.00
2023-08-22T11:02:26.874Z,565.14
2023-08-22T11:03:25.753Z,564.36
2023-08-22T11:04:25.760Z,561.86
2023-08-22T11:05:25.706Z,561.95
2023-08-22T11:06:26.045Z,561.75
2023-08-22T11:07:25.696Z,562.65
2023-08-22T11:08:27.470Z,562.38
2023-08-22T11:09:25.677Z,561.61
2023-08-22T11:10:26.716Z,561.69
2023-08-22T11:11:26.551Z,563.31
2023-08-22T11:12:25.638Z,564.82
2023-08-22T11:13:25.620Z,565.22
2023-08-22T11:14:26.306Z,567.26
2023-08-22T11:15:26.524Z,571.00
2023-08-22T11:16:26.077Z,571.76
2023-08-22T11:17:28.678Z,570.27
2023-08-22T11:18:25.575Z,569.85
2023-08-22T11:19:26.308Z,566.49
2023-08-22T11:20:25.644Z,563.39
2023-08-22T11:21:25.867Z,560.88
2023-08-22T11:22:25.524Z,558.68
2023-08-22T11:23:25.507Z,557.21
2023-08-22T11:24:25.527Z,555.54
2023-08-22T11:25:25.569Z,553.64
2023-08-22T11:26:25.530Z,552.94
2023-08-22T11:27:25.764Z,553.58
2023-08-22T11:28:25.456Z,555.49
2023-08-22T11:29:25.474Z,563.35
2023-08-22T11:30:25.488Z,589.72
2023-08-22T11:31:27.179Z,588.26
2023-08-22T11:32:25.691Z,563.39
2023-08-22T11:35:01.819Z,563.69
2023-08-22T11:36:01.911Z,562.09
2023-08-22T11:37:01.455Z,570.39
2023-08-22T11:38:01.478Z,575.67
2023-08-22T11:39:03.138Z,575.09
2023-08-22T11:40:01.725Z,573.24
2023-08-22T11:41:01.407Z,570.18
2023-08-22T11:42:01.413Z,566.37
2023-08-22T11:43:01.677Z,564.98
2023-08-22T11:44:01.395Z,566.47
2023-08-22T11:45:01.662Z,567.78
2023-08-22T11:46:01.452Z,567.08
2023-08-22T11:47:01.359Z,565.33
2023-08-22T11:48:01.389Z,564.72
2023-08-22T11:49:01.597Z,565.64
2023-08-22T11:50:02.863Z,567.67
2023-08-22T11:51:01.317Z,568.76
2023-08-22T11:52:01.302Z,567.68
2023-08-22T11:53:01.280Z,569.46
2023-08-22T11:54:03.206Z,573.81
2023-08-22T11:55:03.117Z,576.43
2023-08-22T11:56:02.265Z,576.19
2023-08-22T11:57:01.260Z,568.99
2023-08-22T11:58:01.238Z,569.58
2023-08-22T11:59:01.750Z,564.98
2023-08-22T12:00:01.201Z,553.17
2023-08-22T12:01:01.171Z,549.59
2023-08-22T12:02:01.285Z,548.14
2023-08-22T12:03:01.301Z,546.89
2023-08-22T12:04:01.416Z,546.69
2023-08-22T12:05:01.137Z,547.36
2023-08-22T12:06:01.129Z,547.79
2023-08-22T12:07:01.177Z,548.64
2023-08-22T12:08:01.117Z,549.63
2023-08-22T12:09:01.143Z,554.73
2023-08-22T12:10:01.141Z,551.44
2023-08-22T12:11:02.708Z,550.09
2023-08-22T12:12:03.930Z,546.86
2023-08-22T12:13:01.361Z,548.07
2023-08-22T12:14:01.054Z,548.85
2023-08-22T12:15:01.070Z,548.54
2023-08-22T12:16:02.930Z,549.11
2023-08-22T12:17:01.038Z,548.71
2023-08-22T12:18:01.083Z,550.08
2023-08-22T12:19:02.230Z,550.80
2023-08-22T12:20:01.993Z,551.78
2023-08-22T12:21:01.953Z,552.25
2023-08-22T12:22:01.905Z,552.64
2023-08-22T12:23:00.954Z,553.86
2023-08-22T12:24:00.961Z,554.92
2023-08-22T12:25:01.005Z,555.61
2023-08-22T12:26:00.935Z,559.66
2023-08-22T12:27:01.824Z,574.07
2023-08-22T12:28:00.892Z,568.69
2023-08-22T12:29:01.823Z,560.86
2023-08-22T12:30:01.142Z,558.12
2023-08-22T12:31:01.481Z,574.67
2023-08-22T12:32:00.902Z,557.64
2023-08-22T12:33:00.874Z,563.98
2023-08-22T12:34:00.826Z,559.60
2023-08-22T12:35:01.094Z,562.84
2023-08-22T12:36:02.348Z,560.88
2023-08-22T12:37:01.119Z,562.95
2023-08-22T12:38:00.816Z,559.32
2023-08-22T12:39:00.763Z,563.15
2023-08-22T12:40:00.925Z,735.20
2023-08-22T12:41:00.837Z,561.64
2023-08-22T12:42:00.738Z,581.75
2023-08-22T12:43:00.838Z,565.27
2023-08-22T12:44:00.720Z,558.61
2023-08-22T12:45:00.751Z,555.71
2023-08-22T12:46:00.758Z,555.39
2023-08-22T12:47:00.694Z,554.09
2023-08-22T12:48:00.730Z,553.28
2023-08-22T12:49:00.698Z,552.13
2023-08-22T12:50:03.468Z,553.56
2023-08-22T12:51:01.600Z,553.69
2023-08-22T12:52:00.640Z,552.64
2023-08-22T12:53:00.626Z,551.94
2023-08-22T12:54:00.938Z,551.04
2023-08-22T12:55:00.631Z,550.29
2023-08-22T12:56:00.566Z,551.09
2023-08-22T12:57:00.582Z,550.36
2023-08-22T12:58:00.603Z,549.97
2023-08-22T12:59:00.562Z,549.84
2023-08-22T13:00:00.589Z,549.53
2023-08-22T13:01:00.534Z,549.97
2023-08-22T13:02:02.338Z,551.02
2023-08-22T13:03:00.631Z,553.35
2023-08-22T13:04:00.669Z,555.93
2023-08-22T13:05:00.481Z,556.06
2023-08-22T13:06:00.484Z,554.07
2023-08-22T13:07:00.750Z,552.16
2023-08-22T13:08:00.557Z,550.04
2023-08-22T13:09:00.456Z,549.33
2023-08-22T13:10:00.459Z,549.39
2023-08-22T13:11:00.424Z,549.14
2023-08-22T13:12:00.750Z,550.54
2023-08-22T13:14:16.492Z,553.79
2023-08-22T13:15:18.400Z,551.07
2023-08-22T13:16:21.466Z,550.45
2023-08-22T13:17:17.449Z,551.67
2023-08-22T13:18:16.512Z,551.61
2023-08-22T13:19:16.471Z,550.30
2023-08-22T13:20:21.084Z,549.21
2023-08-22T13:21:16.410Z,549.76
2023-08-22T13:22:16.429Z,551.20
2023-08-22T13:23:16.388Z,551.87
2023-08-22T13:24:16.357Z,551.14